Flight Track Log - Related Links

Times and Time Zones

All times are in EDT time to prevent confusion due to time zone crossing. See the AWE72 flight status page for this flight to view local times or setup timezone preferences in your user account.

Time Position Orientation Groundspeed Altitude Reporting Facility
EDT Latitude Longitude Course Direction KTS MPH feet Rate Location/Type
Wed 11:15:29 PM 47.4708 -122.3106 159° South 156 180 1,300  Level Seattle Center
Wed 11:16:42 PM 47.5353 -122.3108 360° North 222 255 3,600 2,373 Climbing Seattle Center
Wed 11:17:43 PM 47.5986 -122.2889 13° North 240 276 6,600 2,411 Climbing Seattle Center
Wed 11:18:00 PM 47.1528 -122.0314 161° South  Level Estimated
Wed 11:18:34 PM 47.6042 -122.1981 85° East 270 311 8,100  Level Seattle Center
Wed 11:19:00 PM 47.0536 -121.9387 163° South  Level Estimated
Wed 11:19:34 PM 47.5633 -122.0989 121° Southeast 296 341 9,000  Level Seattle Center
Wed 11:20:00 PM 46.9543 -121.8463 159° South  Level Estimated
Wed 11:20:35 PM 47.4894 -122.0353 150° Southeast 310 357 10,800  Level Seattle Center
Wed 11:21:36 PM 47.3906 -122.0297 178° South 355 409 13,100 2,607 Climbing Seattle Center
Wed 11:22:37 PM 47.2944 -122.0244 178° South 345 397 16,100 2,459 Climbing Seattle Center
Wed 11:23:38 PM 47.2044 -121.9889 165° South 363 418 18,100 1,525 Climbing Seattle Center
Wed 11:24:39 PM 47.1133 -121.9022 147° Southeast 390 449 19,200 1,131 Climbing Seattle Center
Wed 11:25:40 PM 47.0122 -121.8092 148° Southeast 429 494 20,400 1,240 Climbing Seattle Center
Wed 11:26:40 PM 46.9100 -121.7139 148° Southeast 438 504 21,700 1,289 Climbing Seattle Center
Wed 11:27:41 PM 46.8033 -121.6161 148° Southeast 455 524 23,000 1,328 Climbing Seattle Center
Wed 11:28:42 PM 46.6811 -121.5011 147° Southeast 463 533 24,400 1,131 Climbing Seattle Center
Wed 11:29:43 PM 46.5711 -121.4006 148° Southeast 469 540 25,300 1,033 Climbing Seattle Center
Wed 11:30:44 PM 46.4597 -121.2986 148° Southeast 474 545 26,500 1,131 Climbing Seattle Center
Wed 11:31:45 PM 46.3478 -121.1961 148° Southeast 475 547 27,600 1,131 Climbing Seattle Center
Wed 11:32:46 PM 46.2361 -121.0961 148° Southeast 475 547 28,800 1,091 Climbing Seattle Center
Wed 11:33:46 PM 46.1231 -120.9950 148° Southeast 478 550 29,800 1,041 Climbing Seattle Center
Wed 11:34:47 PM 46.0108 -120.8953 148° Southeast 476 548 30,900 1,131 Climbing Seattle Center
Wed 11:35:48 PM 45.9011 -120.7958 148° Southeast 471 542 32,100 1,180 Climbing Seattle Center
Wed 11:36:49 PM 45.7844 -120.7292 158° South 455 524 33,300 1,190 Climbing Seattle Center
Wed 11:37:49 PM 45.6675 -120.6756 162° South 443 510 34,500 1,091 Climbing Seattle Center
Wed 11:38:50 PM 45.5542 -120.6258 163° South 432 497 35,500 1,033 Climbing Seattle Center
Wed 11:39:51 PM 45.4286 -120.5183 149° Southeast 443 510 36,600 1,033 Climbing Seattle Center
Wed 11:40:52 PM 45.3306 -120.4158 144° Southeast 442 509 37,600 843 Climbing Seattle Center
Wed 11:41:52 PM 45.2336 -120.3156 144° Southeast 433 498 38,300 645 Climbing Seattle Center
Wed 11:42:53 PM 45.1386 -120.2156 143° Southeast 428 493 38,900 344 Climbing Seattle Center
Wed 11:43:54 PM 45.0431 -120.1181 144° Southeast 427 491 39,000 49 Climbing Seattle Center
Wed 11:44:55 PM 44.9461 -120.0192 144° Southeast 439 505 39,000  Level Seattle Center
Wed 11:45:55 PM 44.8353 -119.9011 143° Southeast 441 507 39,000  Level Seattle Center
Wed 11:46:56 PM 44.7517 -119.8178 145° Southeast 446 513 39,000  Level Seattle Center
Wed 11:47:57 PM 44.6308 -119.6933 144° Southeast 449 517 39,000  Level Seattle Center
Wed 11:48:58 PM 44.5278 -119.5944 146° Southeast 451 519 39,000  Level Seattle Center
Wed 11:49:59 PM 44.4242 -119.4944 145° Southeast 452 520 39,000  Level Seattle Center
Wed 11:50:59 PM 44.3239 -119.3911 144° Southeast 451 519 39,000  Level Seattle Center
Wed 11:52:00 PM 44.2214 -119.2839 143° Southeast 460 529 39,000  Level Seattle Center
Wed 11:53:01 PM 44.1189 -119.1778 143° Southeast 461 531 39,000  Level Seattle Center
Wed 11:54:02 PM 44.0150 -119.0706 143° Southeast 464 534 39,000  Level Seattle Center
Wed 11:55:02 PM 43.9119 -118.9653 144° Southeast 462 532 39,000  Level Seattle Center
Wed 11:56:03 PM 43.8078 -118.8611 144° Southeast 461 531 39,000  Level Seattle Center
Wed 11:56:45 PM 43.7256 -118.7761 143° Southeast 462 532 39,000  Level Salt Lake Center
Wed 11:57:46 PM 43.6222 -118.6700 143° Southeast 463 533 39,000  Level Salt Lake Center
Wed 11:58:47 PM 43.5189 -118.5656 144° Southeast 463 533 39,000  Level Salt Lake Center
Wed 11:59:48 PM 43.4139 -118.4611 144° Southeast 466 536 39,000  Level Salt Lake Center
Thu 12:00:50 AM 43.3097 -118.3569 144° Southeast 463 533 39,000  Level Salt Lake Center
Thu 12:01:51 AM 43.1953 -118.2408 143° Southeast 464 534 39,000 -49 Level Salt Lake Center
Thu 12:02:52 AM 43.0944 -118.1411 144° Southeast 466 536 38,900  Descending Salt Lake Center
Thu 12:03:53 AM 42.9969 -118.0439 144° Southeast 456 525 39,000 49 Climbing Salt Lake Center
Thu 12:04:54 AM 42.8808 -117.9303 144° Southeast 460 529 39,000  Level Salt Lake Center
Thu 12:05:55 AM 42.7803 -117.8322 144° Southeast 465 535 39,000  Level Salt Lake Center
Thu 12:06:56 AM 42.6819 -117.7369 145° Southeast 459 528 39,000  Level Salt Lake Center
Thu 12:07:57 AM 42.5661 -117.6222 144° Southeast 461 531 39,000  Level Salt Lake Center
Thu 12:08:59 AM 42.4678 -117.5275 145° Southeast 455 524 39,000  Level Salt Lake Center
Thu 12:10:00 AM 42.3514 -117.4153 145° Southeast 458 527 39,000  Level Salt Lake Center
Thu 12:11:01 AM 42.2519 -117.3189 144° Southeast 459 528 39,000  Level Salt Lake Center
Thu 12:12:02 AM 42.1433 -117.2167 145° Southeast 455 524 39,000  Level Salt Lake Center
Thu 12:13:03 AM 42.0442 -117.1236 145° Southeast 453 521 39,000  Level Salt Lake Center
Thu 12:14:04 AM 41.9456 -117.0278 144° Southeast 456 525 39,000  Level Salt Lake Center
Thu 12:15:05 AM 41.8256 -116.9150 145° Southeast 458 527 39,000  Level Salt Lake Center
Thu 12:16:07 AM 41.7297 -116.8250 145° Southeast 454 522 39,000  Level Salt Lake Center
Thu 12:17:08 AM 41.6144 -116.7192 146° Southeast 451 519 39,000  Level Salt Lake Center
Thu 12:18:09 AM 41.5147 -116.6244 145° Southeast 457 526 39,000  Level Salt Lake Center
Thu 12:19:10 AM 41.4139 -116.5292 145° Southeast 461 531 39,000  Level Salt Lake Center
Thu 12:20:11 AM 41.2956 -116.4203 145° Southeast 462 532 39,000  Level Salt Lake Center
Thu 12:21:13 AM 41.1944 -116.3278 145° Southeast 459 528 39,000  Level Salt Lake Center
Thu 12:22:14 AM 41.0944 -116.2358 145° Southeast 455 524 39,000  Level Salt Lake Center
Thu 12:23:15 AM 40.9736 -116.1247 145° Southeast 465 535 39,000  Level Salt Lake Center
Thu 12:24:16 AM 40.8728 -116.0317 145° Southeast 462 532 39,000  Level Salt Lake Center
Thu 12:25:17 AM 40.7703 -115.9389 146° Southeast 462 532 39,000  Level Salt Lake Center
Thu 12:26:19 AM 40.6478 -115.8297 146° Southeast 468 539 39,000  Level Salt Lake Center
Thu 12:27:20 AM 40.5467 -115.7378 145° Southeast 461 531 39,000  Level Salt Lake Center
Thu 12:28:21 AM 40.4281 -115.6325 146° Southeast 459 528 39,000  Level Salt Lake Center
Thu 12:29:22 AM 40.3294 -115.5419 145° Southeast 452 520 39,000  Level Salt Lake Center
Thu 12:30:24 AM 40.2261 -115.4514 146° Southeast 460 529 39,000  Level Salt Lake Center
Thu 12:31:25 AM 40.1061 -115.3456 146° Southeast 465 535 39,000  Level Salt Lake Center
Thu 12:32:26 AM 40.0058 -115.2567 146° Southeast 457 526 39,000  Level Salt Lake Center
Thu 12:33:27 AM 39.9078 -115.1689 146° Southeast 447 514 39,000  Level Salt Lake Center
Thu 12:34:29 AM 39.7917 -115.0700 147° Southeast 447 514 39,000  Level Salt Lake Center
Thu 12:35:30 AM 39.6936 -114.9819 145° Southeast 445 512 39,000  Level Salt Lake Center
Thu 12:36:31 AM 39.5761 -114.8817 147° Southeast 451 519 39,000  Level Salt Lake Center
Thu 12:37:32 AM 39.4750 -114.7936 146° Southeast 456 525 39,000  Level Salt Lake Center
Thu 12:38:34 AM 39.3692 -114.7064 147° Southeast 468 539 39,000  Level Salt Lake Center
Thu 12:39:35 AM 39.2469 -114.6014 146° Southeast 470 541 39,000  Level Salt Lake Center
Thu 12:40:36 AM 39.1369 -114.5072 146° Southeast 466 536 39,000  Level Salt Lake Center
Thu 12:41:37 AM 39.0289 -114.4144 146° Southeast 466 536 39,000  Level Salt Lake Center
Thu 12:42:39 AM 38.9186 -114.3225 147° Southeast 470 541 39,000  Level Salt Lake Center
Thu 12:43:40 AM 38.8081 -114.2272 146° Southeast 476 548 39,000  Level Salt Lake Center
Thu 12:44:41 AM 38.6961 -114.1342 147° Southeast 479 551 39,000  Level Salt Lake Center
Thu 12:45:42 AM 38.5864 -114.0428 147° Southeast 475 547 39,000  Level Salt Lake Center
Thu 12:46:44 AM 38.4753 -113.9489 147° Southeast 477 549 39,000  Level Salt Lake Center
Thu 12:47:45 AM 38.3636 -113.8569 147° Southeast 479 551 39,000  Level Salt Lake Center
Thu 12:48:46 AM 38.2531 -113.7644 147° Southeast 477 549 39,000  Level Salt Lake Center
Thu 12:49:47 AM 38.1197 -113.6550 147° Southeast 477 549 39,000  Level Salt Lake Center
Thu 12:50:49 AM 38.0069 -113.5617 147° Southeast 482 555 39,000  Level Salt Lake Center
Thu 12:51:50 AM 37.8933 -113.4761 149° Southeast 479 551 39,000  Level Salt Lake Center
Thu 12:52:51 AM 37.7722 -113.4036 155° Southeast 483 556 39,000  Level Salt Lake Center
Thu 12:53:52 AM 37.6536 -113.3319 154° Southeast 479 551 39,000  Level Salt Lake Center
Thu 12:54:53 AM 37.5356 -113.2606 154° Southeast 477 549 39,000 -98 Level Salt Lake Center
Thu 12:55:55 AM 37.4181 -113.1894 154° Southeast 476 548 38,800 -457 Descending Salt Lake Center
Thu 12:56:25 AM 37.3469 -113.1450 154° Southeast 478 550 38,300 -865 Descending Los Angeles Center
Thu 12:57:39 AM 37.2278 -113.0731 154° Southeast 480 552 37,300 -933 Descending Los Angeles Center
Thu 12:58:40 AM 37.0814 -112.9850 154° Southeast 487 560 36,200 -1,024 Descending Los Angeles Center
Thu 12:59:42 AM 36.9619 -112.9142 155° Southeast 480 552 35,200 -581 Descending Los Angeles Center
Thu 01:00:44 AM 36.8172 -112.8275 154° Southeast 481 554 35,000 -98 Descending Los Angeles Center
Thu 01:01:45 AM 36.6947 -112.7550 155° Southeast 485 558 35,000 -393 Level Los Angeles Center
Thu 01:02:46 AM 36.5722 -112.6839 155° Southeast 487 560 34,200 -878 Descending Los Angeles Center
Thu 01:03:48 AM 36.4500 -112.6117 155° Southeast 486 559 33,200 -976 Descending Los Angeles Center
Thu 01:04:49 AM 36.3269 -112.5406 155° Southeast 488 562 32,200 -976 Descending Los Angeles Center
Thu 01:05:51 AM 36.2042 -112.4733 156° South 485 558 31,200 -927 Descending Los Angeles Center
Thu 01:06:52 AM 36.0656 -112.4697 179° South 494 568 30,300 -984 Descending Los Angeles Center
Thu 01:07:53 AM 35.9286 -112.4622 177° South 487 560 29,200 -634 Descending Los Angeles Center
Thu 01:08:55 AM 35.7897 -112.4583 179° South 494 568 29,000 -98 Descending Los Angeles Center
Thu 01:09:56 AM 35.6511 -112.4508 177° South 496 571 29,000  Level Los Angeles Center
Thu 01:11:10 AM 35.4822 -112.4417 177° South 499 574 29,000  Level Los Angeles Center
Thu 01:12:11 AM 35.3136 -112.4181 173° South 502 578 29,000  Level Los Angeles Center
Thu 01:13:06 AM 35.2014 -112.3944 170° South 505 581 29,000 -517 Level Albuquerque Center
Thu 01:14:07 AM 35.0694 -112.3664 170° South 490 564 28,000 -1,587 Descending Albuquerque Center
Thu 01:15:07 AM 34.9461 -112.3408 170° South 459 528 25,800 -1,884 Descending Albuquerque Center
Thu 01:16:08 AM 34.8275 -112.3156 170° South 441 507 24,200 -1,525 Descending Albuquerque Center
Thu 01:17:09 AM 34.7078 -112.2883 169° South 426 490 22,700 -1,488 Descending Albuquerque Center
Thu 01:18:09 AM 34.5947 -112.2633 170° South 415 478 21,200 -1,438 Descending Albuquerque Center
Thu 01:19:10 AM 34.4842 -112.2392 170° South 407 468 19,800 -1,377 Descending Albuquerque Center
Thu 01:20:11 AM 34.3806 -112.2144 169° South 388 447 18,400 -1,438 Descending Albuquerque Center
Thu 01:21:11 AM 34.2806 -112.1875 167° South 373 429 16,900 -1,537 Descending Albuquerque Center
Thu 01:22:12 AM 34.1619 -112.1556 167° South 367 422 15,300 -1,377 Descending Albuquerque Center
Thu 01:23:13 AM 34.0681 -112.1319 168° South 349 402 14,100 -1,190 Descending Albuquerque Center
Thu 01:24:13 AM 33.9794 -112.1075 167° South 333 383 12,900 -1,140 Descending Albuquerque Center
Thu 01:25:14 AM 33.8922 -112.0864 169° South 325 374 11,800 -1,140 Descending Albuquerque Center
Thu 01:26:14 AM 33.8064 -112.0650 168° South 319 367 10,600 -992 Descending Albuquerque Center
Thu 01:27:15 AM 33.7194 -112.0458 170° South 320 368 9,800 -793 Descending Albuquerque Center
Thu 01:28:15 AM 33.6339 -112.0308 172° South 314 361 9,000 -595 Descending Albuquerque Center
Thu 01:29:16 AM 33.5600 -112.0061 164° South 282 325 8,600 -836 Descending Albuquerque Center
Thu 01:30:17 AM 33.5292 -111.9333 117° Southeast 271 312 7,300 -1,438 Descending Albuquerque Center
Thu 01:31:17 AM 33.5264 -111.8503 92° East 252 290 5,700 -1,537 Descending Albuquerque Center
Thu 01:32:18 AM 33.4692 -111.8231 158° South 236 272 4,200 -1,339 Descending Albuquerque Center
Thu 01:33:18 AM 33.4417 -111.8753 238° Southwest 185 213 3,000 -992 Descending Albuquerque Center
Thu 01:34:19 AM 33.4406 -111.9292 269° West 162 186 2,200 -744 Descending Albuquerque Center
Thu 01:35:19 AM 33.4408 -111.9736 270° West 137 158 1,500 -545 Descending Albuquerque Center
Thu 01:36:20 AM 33.4403 -112.0231 269° West 139 160 1,100 -393 Descending Albuquerque Center

Login

Don't have an account? Register now (free) for customized features, flight alerts, and more!